Time;durP1;ratioP1;P1;durP2;ratioP2;P2;SDS_P1;SDS_P2;PMS_P1;PMS_P2;Temp;Humidity;BMP_temperature;BMP_pressure;BME280_temperature;BME280_humidity;BME280_pressure;Samples;Min_cycle;Max_cycle;Signal;HPM_P1;HPM_P2
2021/01/31 00:00:23;;;;;;;18.70;9.57;;;-2.30;99.90;;;;;;5010610;28;20242;-71
2021/01/31 00:02:50;;;;;;;18.07;9.00;;;-2.30;99.90;;;;;;5012729;28;20218;-71
2021/01/31 00:05:17;;;;;;;16.30;7.37;;;-2.30;99.90;;;;;;5010566;28;20235;-72
2021/01/31 00:07:44;;;;;;;20.80;9.53;;;-2.30;99.90;;;;;;5009170;28;20223;-71
2021/01/31 00:10:13;;;;;;;19.03;9.27;;;-2.30;99.90;;;;;;5012485;28;20282;-72
2021/01/31 00:12:43;;;;;;;20.83;8.90;;;-2.30;99.90;;;;;;5014434;28;20206;-72
2021/01/31 00:15:13;;;;;;;16.13;9.33;;;-2.40;99.90;;;;;;5013356;28;20293;-71
2021/01/31 00:17:39;;;;;;;16.03;8.73;;;-2.40;99.90;;;;;;5015255;28;20231;-72
2021/01/31 00:20:07;;;;;;;21.83;8.67;;;-2.40;99.90;;;;;;5014220;28;20318;-71
2021/01/31 00:22:34;;;;;;;18.17;9.27;;;-2.40;99.90;;;;;;5010768;28;20357;-72
2021/01/31 00:25:03;;;;;;;18.77;9.63;;;-2.40;99.90;;;;;;5015828;28;20199;-72
2021/01/31 00:27:29;;;;;;;16.53;9.47;;;-2.40;99.90;;;;;;5014652;28;20254;-71
2021/01/31 00:29:57;;;;;;;15.90;8.40;;;-2.40;99.90;;;;;;5015485;28;20207;-71
2021/01/31 00:32:24;;;;;;;14.90;8.53;;;-2.40;99.90;;;;;;5014260;28;20251;-73
2021/01/31 00:34:52;;;;;;;15.30;8.47;;;-2.40;99.90;;;;;;5012345;28;20213;-73
2021/01/31 00:37:20;;;;;;;16.67;8.23;;;-2.40;99.90;;;;;;5012664;28;20210;-72
2021/01/31 00:39:47;;;;;;;15.73;8.47;;;-2.50;99.90;;;;;;5014230;28;20261;-71
2021/01/31 00:42:16;;;;;;;13.77;6.80;;;-2.50;99.90;;;;;;5013440;28;20253;-71
2021/01/31 00:44:44;;;;;;;13.00;7.57;;;-2.40;99.90;;;;;;5013240;28;20203;-72
2021/01/31 00:47:11;;;;;;;11.67;6.50;;;-2.50;99.90;;;;;;5011220;28;20259;-73
2021/01/31 00:49:38;;;;;;;11.90;6.93;;;-2.30;99.90;;;;;;5012696;28;20285;-71
2021/01/31 00:52:05;;;;;;;14.10;7.17;;;-2.40;99.90;;;;;;5013237;28;20239;-73
2021/01/31 00:54:31;;;;;;;14.73;6.80;;;-2.40;99.90;;;;;;5010342;28;20294;-72
2021/01/31 00:56:58;;;;;;;16.50;7.23;;;-2.40;99.90;;;;;;5012945;28;20642;-72
2021/01/31 00:59:24;;;;;;;11.87;7.07;;;-2.30;99.90;;;;;;5012892;28;20215;-72
2021/01/31 01:01:51;;;;;;;11.27;6.93;;;-2.30;99.90;;;;;;5009063;28;20239;-72
2021/01/31 01:04:18;;;;;;;11.63;6.57;;;-2.30;99.90;;;;;;5012202;28;20679;-73
2021/01/31 01:06:45;;;;;;;11.60;6.43;;;-2.20;99.90;;;;;;5008817;28;20246;-70
2021/01/31 01:09:12;;;;;;;13.93;7.07;;;-2.20;99.90;;;;;;5012087;28;20203;-71
2021/01/31 01:11:39;;;;;;;11.87;6.70;;;-2.20;99.90;;;;;;5009136;28;20302;-70
2021/01/31 01:14:05;;;;;;;12.13;7.40;;;-2.20;99.90;;;;;;5012018;28;20294;-72
2021/01/31 01:16:32;;;;;;;13.40;7.63;;;-2.20;99.90;;;;;;5011231;28;20223;-71
2021/01/31 01:18:58;;;;;;;13.60;7.30;;;-2.20;99.90;;;;;;5011517;28;20231;-70
2021/01/31 01:21:26;;;;;;;10.83;6.93;;;-2.20;99.90;;;;;;5003801;28;20215;-71
2021/01/31 01:23:52;;;;;;;15.87;8.17;;;-2.20;99.90;;;;;;5011596;28;20218;-72
2021/01/31 01:26:19;;;;;;;15.30;8.10;;;-2.10;99.90;;;;;;5011696;28;20346;-72
2021/01/31 01:28:45;;;;;;;16.03;7.53;;;-2.20;99.90;;;;;;5011376;28;20227;-71
2021/01/31 01:31:12;;;;;;;14.47;8.00;;;-2.20;99.90;;;;;;5011161;28;20199;-72
2021/01/31 01:33:38;;;;;;;13.33;7.93;;;-2.30;99.90;;;;;;5011024;28;20334;-72
2021/01/31 01:36:05;;;;;;;13.90;7.23;;;-2.30;99.90;;;;;;5009285;28;20302;-72
2021/01/31 01:38:32;;;;;;;13.53;6.87;;;-2.40;99.90;;;;;;5010966;28;20326;-72
2021/01/31 01:40:59;;;;;;;13.73;7.00;;;-2.40;99.90;;;;;;5008998;28;20208;-72
2021/01/31 01:43:27;;;;;;;13.80;7.90;;;-2.40;99.90;;;;;;5010753;28;20582;-71
2021/01/31 01:46:13;;;;;;;13.20;7.57;;;-2.40;99.90;;;;;;5011370;28;20257;-71
2021/01/31 01:48:40;;;;;;;13.90;7.00;;;-2.50;99.90;;;;;;5011395;28;20358;-73
2021/01/31 01:51:08;;;;;;;14.03;7.10;;;-2.50;99.90;;;;;;5009273;28;20243;-72
2021/01/31 01:53:38;;;;;;;14.47;7.97;;;-2.60;99.90;;;;;;5011087;28;20671;-72
2021/01/31 01:56:09;;;;;;;12.33;7.20;;;-2.60;99.90;;;;;;5008867;28;20637;-72
2021/01/31 01:58:36;;;;;;;15.47;7.27;;;-2.60;99.90;;;;;;5008038;28;20601;-70
2021/01/31 02:01:02;;;;;;;13.23;6.87;;;-2.60;99.90;;;;;;5011928;28;20247;-72
2021/01/31 02:03:31;;;;;;;18.13;6.93;;;-2.60;99.90;;;;;;5012910;28;20211;-72
2021/01/31 02:06:02;;;;;;;15.40;6.90;;;-2.60;99.90;;;;;;5015327;28;20215;-71
2021/01/31 02:08:29;;;;;;;12.83;7.03;;;-2.60;99.90;;;;;;5013613;28;20218;-72
2021/01/31 02:10:56;;;;;;;15.77;7.90;;;-2.60;99.90;;;;;;5011831;28;20207;-72
2021/01/31 02:13:22;;;;;;;15.70;7.80;;;-2.60;99.90;;;;;;5014587;28;20291;-73
2021/01/31 02:15:52;;;;;;;14.63;7.90;;;-2.60;99.90;;;;;;5013169;28;20217;-73
2021/01/31 02:18:28;;;;;;;15.70;7.80;;;-2.60;99.90;;;;;;5012334;28;20333;-73
2021/01/31 02:21:29;;;;;;;18.83;9.00;;;-2.60;99.90;;;;;;5009357;28;20211;-74
2021/01/31 02:24:50;;;;;;;13.50;8.03;;;-2.60;99.90;;;;;;5012093;28;20242;-73
2021/01/31 02:27:50;;;;;;;15.53;8.00;;;-2.60;99.90;;;;;;5013759;28;20219;-71
2021/01/31 02:30:48;;;;;;;14.23;8.03;;;-2.70;99.90;;;;;;5013638;28;20210;-72
2021/01/31 02:33:32;;;;;;;16.30;8.97;;;-2.70;99.90;;;;;;5013368;28;20207;-71
2021/01/31 02:36:03;;;;;;;14.87;8.17;;;-2.70;99.90;;;;;;5013336;28;20226;-72
2021/01/31 02:38:36;;;;;;;14.10;8.80;;;-2.70;99.90;;;;;;5014246;28;20286;-72
2021/01/31 02:41:06;;;;;;;17.77;9.47;;;-2.70;99.90;;;;;;5010605;28;20199;-72
2021/01/31 02:43:39;;;;;;;16.77;8.97;;;-2.80;99.90;;;;;;5014026;28;20206;-73
2021/01/31 02:46:11;;;;;;;17.23;8.27;;;-2.80;99.90;;;;;;5011085;28;20207;-73
2021/01/31 02:48:44;;;;;;;15.13;8.23;;;-2.80;99.90;;;;;;5014434;28;20222;-72
2021/01/31 02:51:19;;;;;;;16.87;8.50;;;-2.80;99.90;;;;;;5011780;28;20241;-72
2021/01/31 02:53:55;;;;;;;13.63;7.90;;;-2.80;99.90;;;;;;5014124;28;20206;-72
2021/01/31 02:56:27;;;;;;;17.53;8.50;;;-2.80;99.90;;;;;;5013936;28;20260;-72
2021/01/31 02:59:02;;;;;;;15.27;8.40;;;-2.80;99.90;;;;;;5012379;28;20203;-71
2021/01/31 03:01:33;;;;;;;15.53;8.37;;;-2.80;99.90;;;;;;5011272;28;20202;-70
2021/01/31 03:04:06;;;;;;;12.23;7.53;;;-2.80;99.90;;;;;;5013490;28;20250;-72
2021/01/31 03:06:37;;;;;;;16.50;8.53;;;-2.80;99.90;;;;;;5011161;28;20290;-70
2021/01/31 03:09:11;;;;;;;15.40;7.70;;;-2.80;99.90;;;;;;5012792;28;20265;-71
2021/01/31 03:11:42;;;;;;;12.27;7.90;;;-2.80;99.90;;;;;;5010276;28;20303;-72
2021/01/31 03:14:14;;;;;;;13.73;7.57;;;-2.80;99.90;;;;;;5012249;28;20286;-71
2021/01/31 03:16:45;;;;;;;18.40;7.93;;;-2.90;99.90;;;;;;5013281;28;20238;-71
2021/01/31 03:19:17;;;;;;;14.47;7.37;;;-2.90;99.90;;;;;;5012096;28;20231;-71
2021/01/31 03:21:48;;;;;;;15.60;8.20;;;-2.90;99.90;;;;;;5012540;28;20695;-72
2021/01/31 03:24:21;;;;;;;15.67;8.60;;;-3.00;99.90;;;;;;5008541;28;20241;-72
2021/01/31 03:26:51;;;;;;;16.20;8.23;;;-3.00;99.90;;;;;;5009430;28;20217;-72
2021/01/31 03:29:18;;;;;;;14.60;7.77;;;-3.00;99.90;;;;;;5013031;28;20206;-72
2021/01/31 03:31:53;;;;;;;15.33;8.40;;;-2.90;99.90;;;;;;5010842;28;20224;-73
2021/01/31 03:34:24;;;;;;;15.00;8.43;;;-3.10;99.90;;;;;;5010398;28;20217;-72
2021/01/31 03:36:55;;;;;;;13.73;7.60;;;-3.10;99.90;;;;;;5009307;28;20640;-71
2021/01/31 03:39:22;;;;;;;15.13;7.27;;;-3.20;99.90;;;;;;5010891;28;20303;-71
2021/01/31 03:41:49;;;;;;;16.10;8.57;;;-3.20;99.90;;;;;;5012306;28;20705;-71
2021/01/31 03:44:15;;;;;;;15.30;8.43;;;-3.30;99.90;;;;;;5011859;28;20290;-71
2021/01/31 03:46:49;;;;;;;17.70;9.17;;;-3.30;99.90;;;;;;5012900;28;20227;-71
2021/01/31 03:49:22;;;;;;;13.80;8.27;;;-3.30;99.90;;;;;;5012801;28;20211;-71
2021/01/31 03:51:49;;;;;;;14.30;8.27;;;-3.40;99.90;;;;;;5013224;28;20559;-72
2021/01/31 03:54:16;;;;;;;14.27;8.20;;;-3.40;99.90;;;;;;5012591;28;20298;-71
2021/01/31 03:56:47;;;;;;;14.20;7.63;;;-3.40;99.90;;;;;;5010847;28;20231;-72
2021/01/31 03:59:19;;;;;;;17.57;8.80;;;-3.40;99.90;;;;;;5012713;28;20203;-71
2021/01/31 04:01:49;;;;;;;17.07;8.67;;;-3.40;99.90;;;;;;5011301;28;20742;-71
2021/01/31 04:04:19;;;;;;;20.53;8.80;;;-3.50;99.90;;;;;;5012376;28;20207;-72
2021/01/31 04:06:50;;;;;;;13.83;8.13;;;-3.50;99.90;;;;;;5007411;28;20203;-71
2021/01/31 04:09:18;;;;;;;16.40;8.30;;;-3.50;99.90;;;;;;5010799;28;20286;-72
2021/01/31 04:11:46;;;;;;;14.80;7.57;;;-3.50;99.90;;;;;;5011273;28;20289;-71
2021/01/31 04:14:20;;;;;;;16.67;7.73;;;-3.50;99.90;;;;;;5012063;28;20611;-71
2021/01/31 04:16:49;;;;;;;16.67;7.90;;;-3.60;99.90;;;;;;5012687;28;20227;-72
2021/01/31 04:19:16;;;;;;;13.70;7.90;;;-3.70;99.90;;;;;;5012271;28;20241;-71
2021/01/31 04:21:43;;;;;;;12.70;7.93;;;-3.70;99.90;;;;;;5010137;28;20222;-71
2021/01/31 04:24:12;;;;;;;14.30;8.23;;;-3.70;99.90;;;;;;5011621;28;20287;-72
2021/01/31 04:26:39;;;;;;;15.30;7.90;;;-3.80;99.90;;;;;;5011810;28;20222;-72
2021/01/31 04:29:06;;;;;;;15.87;8.40;;;-3.80;99.90;;;;;;5011371;28;20253;-72
2021/01/31 04:31:33;;;;;;;14.53;7.60;;;-3.80;99.90;;;;;;5012284;28;20559;-71
2021/01/31 04:33:59;;;;;;;13.00;7.80;;;-3.90;99.90;;;;;;5012379;28;20951;-72
2021/01/31 04:36:27;;;;;;;13.53;7.80;;;-3.90;99.90;;;;;;5007279;28;20214;-72
2021/01/31 04:38:54;;;;;;;11.83;6.83;;;-4.00;99.90;;;;;;5009780;28;20286;-72
2021/01/31 04:41:21;;;;;;;14.93;7.70;;;-4.00;99.90;;;;;;5008098;28;20675;-72
2021/01/31 04:43:51;;;;;;;13.90;7.33;;;-4.10;99.90;;;;;;5011396;28;20207;-72
2021/01/31 04:46:21;;;;;;;15.57;8.17;;;-4.10;99.90;;;;;;5009167;28;20298;-71
2021/01/31 04:48:58;;;;;;;18.70;7.77;;;-4.00;99.90;;;;;;5012509;28;20246;-71
2021/01/31 04:51:36;;;;;;;17.70;7.90;;;-4.10;99.90;;;;;;5009388;28;20337;-72
2021/01/31 04:54:25;;;;;;;14.13;7.57;;;-4.20;99.90;;;;;;5011506;28;20226;-71
2021/01/31 04:57:11;;;;;;;13.90;7.53;;;-4.20;99.90;;;;;;5007636;28;20218;-71
2021/01/31 04:59:39;;;;;;;13.17;7.07;;;-4.30;99.90;;;;;;5011873;28;20211;-72
2021/01/31 05:02:10;;;;;;;15.50;6.90;;;-4.30;99.90;;;;;;5009660;28;20214;-71
2021/01/31 05:04:48;;;;;;;14.37;6.90;;;-4.30;99.90;;;;;;5012613;28;20205;-70
2021/01/31 05:07:16;;;;;;;18.07;6.80;;;-4.30;99.90;;;;;;5012339;28;20652;-71
2021/01/31 05:09:46;;;;;;;11.57;6.63;;;-4.30;99.90;;;;;;5011920;28;20211;-71
2021/01/31 05:12:21;;;;;;;14.67;6.67;;;-4.30;99.90;;;;;;5010264;28;20203;-72
2021/01/31 05:15:15;;;;;;;15.93;6.80;;;-4.30;99.90;;;;;;5012287;28;20593;-72
2021/01/31 05:17:44;;;;;;;15.13;7.30;;;-4.30;99.90;;;;;;5011731;28;20240;-70
2021/01/31 05:20:13;;;;;;;14.53;7.37;;;-4.30;99.90;;;;;;5008378;28;20284;-72
2021/01/31 05:22:45;;;;;;;14.30;6.90;;;-4.30;99.90;;;;;;5011117;28;20652;-71
2021/01/31 05:25:15;;;;;;;13.00;6.63;;;-4.30;99.90;;;;;;5009838;28;20341;-71
2021/01/31 05:27:44;;;;;;;13.00;6.87;;;-4.30;99.90;;;;;;5010270;28;20211;-70
2021/01/31 05:30:13;;;;;;;15.07;6.07;;;-4.20;99.90;;;;;;5010876;28;20207;-72
2021/01/31 05:33:05;;;;;;;14.27;7.10;;;-4.20;99.90;;;;;;5011304;28;20653;-72
2021/01/31 05:35:33;;;;;;;12.67;6.83;;;-4.20;99.90;;;;;;5014618;28;20282;-71
2021/01/31 05:37:59;;;;;;;12.50;6.20;;;-4.10;99.90;;;;;;5012230;28;20203;-70
2021/01/31 05:40:32;;;;;;;13.97;6.40;;;-4.20;99.90;;;;;;5013892;28;20260;-71
2021/01/31 05:43:01;;;;;;;11.13;6.63;;;-4.20;99.90;;;;;;5012276;28;20646;-71
2021/01/31 05:45:32;;;;;;;13.13;7.20;;;-4.20;99.90;;;;;;5011553;28;20233;-72
2021/01/31 05:48:01;;;;;;;13.03;6.03;;;-4.20;99.90;;;;;;5014467;28;20764;-72
2021/01/31 05:50:33;;;;;;;13.47;6.57;;;-4.20;99.90;;;;;;5013884;28;20213;-72
2021/01/31 05:53:19;;;;;;;13.20;7.03;;;-4.20;99.90;;;;;;5014614;28;20286;-71
2021/01/31 05:55:45;;;;;;;14.17;6.47;;;-4.10;99.90;;;;;;5013091;28;20246;-72
2021/01/31 05:58:19;;;;;;;13.57;6.40;;;-4.20;99.90;;;;;;5015537;28;20214;-70
2021/01/31 06:00:46;;;;;;;14.90;6.97;;;-4.20;99.90;;;;;;5013363;28;20196;-70
2021/01/31 06:03:19;;;;;;;9.83;6.20;;;-4.20;99.90;;;;;;5014446;28;20294;-71
2021/01/31 06:05:47;;;;;;;13.93;7.03;;;-4.10;99.90;;;;;;5012400;28;20195;-72
2021/01/31 06:08:26;;;;;;;11.13;6.50;;;-4.10;99.90;;;;;;5015498;28;20676;-72
2021/01/31 06:11:00;;;;;;;13.47;6.80;;;-4.10;99.90;;;;;;5009833;28;20286;-72
2021/01/31 06:13:28;;;;;;;15.40;7.23;;;-4.10;99.90;;;;;;5008704;28;20203;-72
2021/01/31 06:15:57;;;;;;;15.53;6.93;;;-4.10;99.90;;;;;;5015288;28;20214;-73
2021/01/31 06:18:26;;;;;;;15.83;7.40;;;-4.10;99.90;;;;;;5012608;28;20270;-72
2021/01/31 06:20:53;;;;;;;14.00;7.10;;;-4.00;99.90;;;;;;5013928;28;20669;-72
2021/01/31 06:23:32;;;;;;;14.93;7.37;;;-3.90;99.90;;;;;;5009125;28;20283;-71
2021/01/31 06:25:58;;;;;;;14.73;7.63;;;-3.90;99.90;;;;;;5012775;28;20735;-71
2021/01/31 06:28:34;;;;;;;16.43;7.63;;;-3.80;99.90;;;;;;5014812;28;20231;-71
2021/01/31 06:31:07;;;;;;;18.23;7.83;;;-3.80;99.90;;;;;;5011340;28;20322;-71
2021/01/31 06:33:34;;;;;;;13.73;7.53;;;-3.80;99.90;;;;;;5013945;28;20294;-71
2021/01/31 06:36:13;;;;;;;15.03;7.33;;;-3.70;99.90;;;;;;5014663;28;20243;-71
2021/01/31 06:38:51;;;;;;;13.50;6.77;;;-3.70;99.90;;;;;;5011302;28;20195;-71
2021/01/31 06:41:26;;;;;;;13.70;7.13;;;-3.60;99.90;;;;;;5012036;28;20265;-70
2021/01/31 06:44:05;;;;;;;16.33;7.23;;;-3.60;99.90;;;;;;5013368;28;20719;-72
2021/01/31 06:46:44;;;;;;;13.60;6.50;;;-3.60;99.90;;;;;;5012664;28;20257;-74
2021/01/31 06:49:23;;;;;;;12.53;6.70;;;-3.60;99.90;;;;;;5014714;28;20231;-74
2021/01/31 06:52:05;;;;;;;13.40;6.40;;;-3.60;99.90;;;;;;5008757;28;20207;-74
2021/01/31 06:54:58;;;;;;;10.90;5.73;;;-3.60;99.90;;;;;;5011834;28;20266;-73
2021/01/31 06:57:59;;;;;;;13.77;6.23;;;-3.60;99.90;;;;;;5014854;28;20291;-73
2021/01/31 07:00:58;;;;;;;12.00;5.37;;;-3.60;99.90;;;;;;5012391;28;20738;-75
2021/01/31 07:03:50;;;;;;;16.43;6.20;;;-3.60;99.90;;;;;;5011119;28;20326;-74
2021/01/31 07:06:38;;;;;;;15.83;6.73;;;-3.60;99.90;;;;;;5012595;28;20215;-73
2021/01/31 07:09:29;;;;;;;11.47;5.80;;;-3.50;99.90;;;;;;5017014;28;20313;-72
2021/01/31 07:12:04;;;;;;;13.03;5.93;;;-3.40;99.90;;;;;;5015904;28;20207;-73
2021/01/31 07:14:58;;;;;;;10.37;5.80;;;-3.20;99.90;;;;;;5005228;28;20250;-75
2021/01/31 07:17:32;;;;;;;12.53;5.00;;;-3.10;99.90;;;;;;5010900;28;20223;-76
2021/01/31 07:20:05;;;;;;;9.37;5.47;;;-3.00;99.90;;;;;;5014228;28;20766;-76
2021/01/31 07:22:39;;;;;;;8.77;5.33;;;-2.90;99.90;;;;;;5016368;28;20290;-76
2021/01/31 07:25:12;;;;;;;10.73;5.67;;;-2.80;99.90;;;;;;5010669;28;20213;-75
2021/01/31 07:27:44;;;;;;;11.83;5.50;;;-2.60;99.90;;;;;;5014506;28;20318;-74
2021/01/31 07:30:19;;;;;;;11.63;5.93;;;-2.50;99.90;;;;;;5007153;28;20282;-75
2021/01/31 07:33:00;;;;;;;12.73;6.57;;;-2.30;99.90;;;;;;5014531;28;20221;-76
2021/01/31 07:35:33;;;;;;;11.20;6.00;;;-2.10;99.90;;;;;;5011506;28;20200;-75
2021/01/31 07:38:08;;;;;;;11.73;6.30;;;-1.90;99.90;;;;;;5014861;28;20199;-75
2021/01/31 07:40:34;;;;;;;13.23;6.07;;;-1.70;99.90;;;;;;5011420;28;20273;-75
2021/01/31 07:43:02;;;;;;;10.60;6.07;;;-1.60;99.90;;;;;;5011206;28;20660;-75
2021/01/31 07:45:29;;;;;;;8.83;5.40;;;-1.50;99.90;;;;;;5017226;28;20203;-74
2021/01/31 07:48:39;;;;;;;13.03;6.97;;;-1.40;99.90;;;;;;5020307;28;20270;-74
2021/01/31 07:51:06;;;;;;;13.03;6.73;;;-1.40;99.90;;;;;;5015267;28;20207;-74
2021/01/31 07:53:36;;;;;;;12.43;6.73;;;-1.30;99.90;;;;;;5009204;28;20660;-75
2021/01/31 07:56:29;;;;;;;14.47;6.93;;;-1.30;99.90;;;;;;5016082;28;20238;-73
2021/01/31 07:58:57;;;;;;;13.47;6.60;;;-1.30;99.90;;;;;;5005622;28;20235;-75
2021/01/31 08:01:47;;;;;;;10.83;6.00;;;-1.30;99.90;;;;;;5013848;28;20210;-77
2021/01/31 08:04:46;;;;;;;11.90;6.70;;;-1.10;99.90;;;;;;4995771;28;20211;-75
2021/01/31 08:07:51;;;;;;;13.50;7.37;;;-1.00;99.90;;;;;;5003065;28;20270;-76
2021/01/31 08:10:47;;;;;;;13.37;6.63;;;-1.00;99.90;;;;;;5011814;28;20207;-76
2021/01/31 08:13:35;;;;;;;14.67;8.10;;;-1.00;99.90;;;;;;5007560;28;20711;-74
2021/01/31 08:16:02;;;;;;;12.23;6.57;;;-0.90;99.90;;;;;;5011294;28;20678;-73
2021/01/31 08:18:28;;;;;;;13.90;7.03;;;-0.80;99.90;;;;;;5005006;28;20846;-75
2021/01/31 08:20:55;;;;;;;17.20;7.70;;;-0.70;99.90;;;;;;5003409;28;20211;-75
2021/01/31 08:23:54;;;;;;;13.03;6.83;;;-0.60;99.90;;;;;;5015330;28;20630;-75
2021/01/31 08:26:42;;;;;;;11.30;6.53;;;-0.40;99.90;;;;;;5006060;28;20566;-74
2021/01/31 08:29:30;;;;;;;18.03;7.80;;;-0.20;99.90;;;;;;5013661;28;20223;-73
2021/01/31 08:32:05;;;;;;;12.10;7.10;;;-0.20;99.90;;;;;;4997344;28;20656;-75
2021/01/31 08:35:18;;;;;;;13.47;7.50;;;-0.20;99.90;;;;;;5015717;28;20202;-73
2021/01/31 08:37:45;;;;;;;14.80;7.03;;;0.00;99.90;;;;;;5014146;28;20559;-74
2021/01/31 08:40:20;;;;;;;13.30;7.20;;;0.10;99.90;;;;;;5015019;28;20621;-73
2021/01/31 08:42:54;;;;;;;16.20;7.70;;;0.30;99.90;;;;;;5005286;28;20214;-75
2021/01/31 08:45:21;;;;;;;14.23;7.80;;;0.50;99.90;;;;;;5015375;28;20720;-74
2021/01/31 08:47:47;;;;;;;18.73;8.70;;;0.60;99.90;;;;;;5004027;28;20254;-74
2021/01/31 08:50:17;;;;;;;13.93;8.17;;;0.70;99.90;;;;;;5014554;28;20261;-71
2021/01/31 08:52:46;;;;;;;14.73;8.17;;;0.80;99.90;;;;;;5012397;28;20211;-70
2021/01/31 08:55:24;;;;;;;14.80;7.40;;;0.80;99.90;;;;;;5009210;28;20211;-72
2021/01/31 08:58:00;;;;;;;14.80;8.17;;;0.80;99.90;;;;;;5012118;28;20286;-74
2021/01/31 09:00:28;;;;;;;17.07;7.60;;;0.90;99.90;;;;;;5014532;28;20648;-73
2021/01/31 09:02:57;;;;;;;11.70;7.47;;;1.20;99.90;;;;;;5014962;28;20222;-74
2021/01/31 09:05:25;;;;;;;14.10;7.57;;;2.50;99.90;;;;;;5008583;28;20204;-74
2021/01/31 09:08:00;;;;;;;13.63;7.43;;;5.10;99.90;;;;;;5005676;28;20227;-74
2021/01/31 09:10:35;;;;;;;13.30;7.93;;;7.70;90.10;;;;;;5004192;28;20199;-74
2021/01/31 09:13:12;;;;;;;15.50;7.67;;;10.40;68.40;;;;;;5009540;28;20219;-76
2021/01/31 09:15:39;;;;;;;14.63;7.93;;;12.70;51.60;;;;;;5008685;28;20208;-74
2021/01/31 09:18:07;;;;;;;12.80;7.93;;;14.20;44.90;;;;;;5012876;28;20214;-74
2021/01/31 09:20:34;;;;;;;13.20;7.97;;;15.20;42.50;;;;;;5006020;28;20259;-72
2021/01/31 09:23:06;;;;;;;14.30;9.10;;;16.40;39.80;;;;;;5013433;28;20298;-74
2021/01/31 09:25:36;;;;;;;13.67;9.30;;;17.70;37.70;;;;;;5011589;28;20234;-74
2021/01/31 09:28:07;;;;;;;13.13;8.70;;;19.10;36.10;;;;;;5013549;28;20227;-75
2021/01/31 09:30:36;;;;;;;13.63;8.67;;;20.40;33.50;;;;;;5010628;28;20211;-73
2021/01/31 09:33:05;;;;;;;13.87;8.50;;;21.20;31.60;;;;;;5010350;28;20637;-74
2021/01/31 09:35:34;;;;;;;15.23;9.35;;;21.80;30.00;;;;;;5012294;28;20287;-74
2021/01/31 09:38:23;;;;;;;15.20;9.63;;;21.90;29.50;;;;;;5013327;28;20209;-72
2021/01/31 09:40:53;;;;;;;13.75;8.88;;;22.50;29.40;;;;;;5012829;28;20317;-75
2021/01/31 09:43:23;;;;;;;14.20;9.00;;;23.10;28.60;;;;;;5009116;28;20218;-75
2021/01/31 09:45:53;;;;;;;13.27;9.48;;;23.40;27.80;;;;;;5009636;28;20207;-75
2021/01/31 09:48:23;;;;;;;12.00;9.18;;;23.80;27.60;;;;;;5010048;28;20317;-76
2021/01/31 09:50:58;;;;;;;12.05;8.85;;;24.10;27.00;;;;;;5008916;28;20312;-75
2021/01/31 09:53:37;;;;;;;13.88;9.82;;;24.60;26.90;;;;;;5011269;28;20246;-74
2021/01/31 09:56:06;;;;;;;12.32;10.38;;;24.60;26.30;;;;;;5009694;28;20234;-73
2021/01/31 09:58:46;;;;;;;14.73;9.70;;;24.70;26.40;;;;;;5009475;28;20206;-73
2021/01/31 10:01:22;;;;;;;14.65;10.40;;;24.70;25.80;;;;;;5011692;28;20206;-72
2021/01/31 10:03:56;;;;;;;13.93;10.10;;;24.70;25.70;;;;;;5010542;28;20226;-74
2021/01/31 10:06:22;;;;;;;14.38;9.48;;;25.00;26.20;;;;;;5008089;28;20314;-74
2021/01/31 10:08:53;;;;;;;14.98;10.13;;;25.30;25.40;;;;;;5002724;28;20251;-73
2021/01/31 10:11:42;;;;;;;13.18;9.93;;;25.30;25.30;;;;;;5005722;28;20214;-72
2021/01/31 10:14:10;;;;;;;14.20;9.98;;;26.00;25.40;;;;;;5004531;28;20207;-74
2021/01/31 10:16:40;;;;;;;17.13;10.50;;;26.80;24.70;;;;;;5013663;28;20585;-74
2021/01/31 10:19:10;;;;;;;13.00;10.27;;;27.20;24.20;;;;;;5007500;28;20235;-73
2021/01/31 10:21:40;;;;;;;13.52;10.35;;;27.40;23.90;;;;;;5010855;28;20716;-75
2021/01/31 10:24:19;;;;;;;15.50;10.43;;;27.60;23.90;;;;;;5005971;28;20298;-72
2021/01/31 10:26:46;;;;;;;15.52;10.77;;;27.80;23.50;;;;;;5016696;28;20687;-72
2021/01/31 10:29:21;;;;;;;15.15;11.23;;;28.40;23.40;;;;;;5005751;28;20709;-72
2021/01/31 10:31:49;;;;;;;13.55;10.13;;;28.20;22.80;;;;;;5010730;28;20204;-72
2021/01/31 10:34:37;;;;;;;15.57;10.77;;;27.60;22.80;;;;;;5013715;28;20207;-72
2021/01/31 10:37:12;;;;;;;12.55;9.63;;;27.20;23.40;;;;;;5001368;28;20563;-73
2021/01/31 10:39:40;;;;;;;14.55;10.23;;;27.20;23.20;;;;;;4999837;28;20294;-77
2021/01/31 10:42:06;;;;;;;14.73;11.07;;;27.40;23.20;;;;;;5008943;28;20252;-76
2021/01/31 10:44:33;;;;;;;15.20;10.90;;;27.60;23.10;;;;;;5017051;28;20207;-74
2021/01/31 10:47:00;;;;;;;15.55;10.85;;;28.00;22.90;;;;;;5011529;28;20215;-75
2021/01/31 10:49:27;;;;;;;13.68;10.18;;;28.20;22.60;;;;;;5015034;28;20255;-73
2021/01/31 10:51:54;;;;;;;14.48;10.98;;;27.80;22.50;;;;;;5006585;28;20291;-73
2021/01/31 10:54:22;;;;;;;14.60;10.25;;;28.00;22.60;;;;;;5006212;28;20298;-73
2021/01/31 10:56:48;;;;;;;14.15;10.45;;;28.40;22.40;;;;;;5016369;28;20249;-74
2021/01/31 10:59:14;;;;;;;12.82;9.80;;;28.80;21.90;;;;;;5006275;28;20204;-73
2021/01/31 11:01:45;;;;;;;14.40;11.13;;;28.70;21.70;;;;;;5015197;28;20294;-76
2021/01/31 11:04:16;;;;;;;13.98;10.70;;;28.60;22.00;;;;;;5020622;28;20208;-80
2021/01/31 11:06:46;;;;;;;14.45;10.73;;;28.60;21.80;;;;;;5016787;28;20204;-78
2021/01/31 11:09:15;;;;;;;17.80;11.55;;;28.50;21.70;;;;;;5010666;28;20196;-78
2021/01/31 11:11:42;;;;;;;14.38;10.63;;;28.60;21.90;;;;;;5019169;28;20610;-79
2021/01/31 11:14:09;;;;;;;14.50;10.75;;;29.00;21.90;;;;;;5018622;28;20310;-79
2021/01/31 11:16:35;;;;;;;14.50;10.63;;;29.20;21.60;;;;;;5018481;28;20235;-77
2021/01/31 11:19:02;;;;;;;13.07;10.57;;;29.60;21.50;;;;;;5020152;28;20258;-83
2021/01/31 11:21:30;;;;;;;13.57;10.25;;;29.80;21.20;;;;;;5015878;28;20238;-77
2021/01/31 11:23:57;;;;;;;13.50;10.38;;;29.90;21.20;;;;;;5019600;28;20291;-77
2021/01/31 11:26:24;;;;;;;13.63;10.55;;;30.10;21.10;;;;;;5019281;28;20203;-77
2021/01/31 11:28:51;;;;;;;13.40;10.82;;;30.00;21.10;;;;;;5018788;28;20235;-78
2021/01/31 11:31:18;;;;;;;12.93;10.00;;;30.10;21.10;;;;;;5012280;28;20888;-76
2021/01/31 11:33:44;;;;;;;11.27;9.55;;;30.40;21.60;;;;;;5013896;28;20290;-77
2021/01/31 11:36:11;;;;;;;13.32;9.95;;;30.90;20.80;;;;;;5014102;28;20679;-78
2021/01/31 11:38:38;;;;;;;12.57;9.80;;;31.30;20.60;;;;;;5016590;28;20215;-77
2021/01/31 11:41:05;;;;;;;11.27;8.90;;;31.50;20.20;;;;;;5017034;28;20754;-79
2021/01/31 11:43:31;;;;;;;11.15;9.45;;;31.50;20.30;;;;;;5014233;28;20210;-77
2021/01/31 11:45:58;;;;;;;11.85;9.40;;;31.40;20.30;;;;;;5014919;28;20228;-76
2021/01/31 11:48:24;;;;;;;12.30;9.02;;;31.40;20.30;;;;;;5013579;28;20234;-76
2021/01/31 11:50:51;;;;;;;12.00;9.52;;;31.30;20.50;;;;;;5012789;28;20249;-71
2021/01/31 11:53:17;;;;;;;12.10;8.70;;;31.30;20.20;;;;;;5014541;28;20290;-71
2021/01/31 11:55:46;;;;;;;11.02;9.07;;;31.30;20.10;;;;;;5010426;28;20259;-73
2021/01/31 11:58:13;;;;;;;10.68;8.85;;;31.70;20.10;;;;;;5009093;28;20212;-74
2021/01/31 12:00:39;;;;;;;11.32;9.13;;;31.80;19.70;;;;;;5015209;28;20294;-75
2021/01/31 12:03:08;;;;;;;11.90;9.55;;;31.80;19.80;;;;;;5013877;28;20278;-72
2021/01/31 12:05:35;;;;;;;11.27;9.32;;;31.70;19.90;;;;;;5012143;28;20636;-73
2021/01/31 12:08:01;;;;;;;13.55;9.77;;;31.20;19.80;;;;;;5007117;28;20258;-73
2021/01/31 12:10:27;;;;;;;11.68;8.65;;;30.70;19.90;;;;;;4996153;28;20314;-73
2021/01/31 12:12:55;;;;;;;12.52;9.70;;;29.60;19.20;;;;;;5001194;28;20238;-73
2021/01/31 12:15:21;;;;;;;11.50;9.50;;;27.40;19.80;;;;;;5012586;28;20294;-72
2021/01/31 12:17:48;;;;;;;13.93;10.18;;;24.40;20.90;;;;;;5014890;28;20286;-73
2021/01/31 12:20:16;;;;;;;11.88;9.23;;;21.50;22.30;;;;;;5014582;28;20341;-72
2021/01/31 12:22:42;;;;;;;13.50;8.98;;;18.90;23.70;;;;;;5004061;28;20218;-72
2021/01/31 12:25:13;;;;;;;11.93;9.23;;;16.40;24.90;;;;;;4996757;28;20275;-72
2021/01/31 12:27:40;;;;;;;11.53;8.20;;;14.20;26.30;;;;;;5015047;28;20199;-72
2021/01/31 12:30:08;;;;;;;13.33;8.70;;;12.20;27.90;;;;;;5013887;28;20204;-72
2021/01/31 12:32:35;;;;;;;12.40;8.43;;;10.50;29.40;;;;;;5013282;28;20302;-72
2021/01/31 12:35:01;;;;;;;17.97;8.20;;;9.00;32.20;;;;;;5013282;28;20306;-73
2021/01/31 12:37:28;;;;;;;13.33;8.17;;;7.60;34.40;;;;;;5011259;28;20298;-72
2021/01/31 12:39:56;;;;;;;13.33;8.33;;;6.40;35.90;;;;;;5014562;28;20719;-72
2021/01/31 12:42:22;;;;;;;12.73;8.20;;;5.50;38.20;;;;;;5008578;28;20250;-72
2021/01/31 12:44:49;;;;;;;14.23;8.00;;;4.80;40.00;;;;;;5013391;28;20679;-72
2021/01/31 12:47:17;;;;;;;11.70;7.63;;;4.10;41.50;;;;;;5006709;28;20218;-72
2021/01/31 12:49:44;;;;;;;14.63;8.13;;;3.60;42.60;;;;;;5014489;28;20227;-72
2021/01/31 12:52:11;;;;;;;13.90;8.77;;;3.10;44.00;;;;;;5007936;28;20239;-73
2021/01/31 12:54:38;;;;;;;14.83;9.10;;;2.70;45.20;;;;;;5012493;28;20577;-73
2021/01/31 12:57:06;;;;;;;13.13;8.37;;;2.30;46.10;;;;;;5007972;28;20207;-72
2021/01/31 12:59:32;;;;;;;12.47;8.30;;;2.10;47.30;;;;;;5002891;28;20630;-71